Time Latitude Longitude Accuracy (66% radius in meters) Altitude (meters) Speed (km/hour) Bearing (degrees) Battery (%) GPS flag
12:03:32 57.731413 28.349002 5 40.3 0 42.779998779297 74 1 delete
12:02:11 57.731302 28.349075 4.9000000953674 40.4 0 27.959999084473 74 1 delete
12:01:48 57.731217 28.349132 4.5 40.7 0 150.36000061035 74 1 delete
12:01:10 57.731330 28.348935 3.2000000476837 40.3 0 46.740001678467 74 1 delete
12:01:02 57.731287 28.348780 3.5999999046326 40.4 0.8652480840683 12.89999961853 74 1 delete
12:00:28 57.731193 28.348880 2.7000000476837 38.3 0.71906691789627 113.62999725342 77 1 delete
11:57:36 57.731217 28.348710 2.9000000953674 32.7 0.86833637952805 39.729999542236 77 1 delete
11:57:24 57.731147 28.348562 3 35.8 1.6697589159012 61.290000915527 77 1 delete
11:57:19 57.731053 28.348477 3.2000000476837 42.2 0 81.01000213623 77 1 delete
11:57:12 57.731045 28.348293 3 44.1 0 48.630001068115 77 1 delete
11:57:02 57.730970 28.348120 3.2999999523163 43.1 0 28.549999237061 77 1 delete
11:56:50 57.730898 28.348010 3.0999999046326 41.6 1.1169471740723 44.360000610352 77 1 delete
11:56:42 57.730820 28.347888 3.0999999046326 41.7 0 29.040000915527 77 1 delete
11:56:36 57.730728 28.347783 3.0999999046326 41.1 1.4139419794083 57.080001831055 77 1 delete
11:56:18 57.730560 28.347532 3.0999999046326 39.9 0 60.189998626709 77 1 delete
11:56:06 57.730525 28.347373 3.2999999523163 39.1 0 87.029998779297 77 1 delete
11:55:38 57.730380 28.347130 3.4000000953674 38 0 12.5 77 1 delete
11:54:10 57.730297 28.347063 3.9000000953674 37 0.56104719638824 17.25 77 1 delete
11:53:40 57.730210 28.347152 3.5999999046326 43.1 0.27589112520218 142.83999633789 77 1 delete
11:53:24 57.730243 28.346953 3.7999999523163 47.1 0 166.63000488281 77 1 delete
11:52:50 57.730170 28.347052 3.7999999523163 40.4 5.9666600227356 173.44000244141 77 1 delete
11:52:44 57.730223 28.346893 4.3000001907349 42.2 0 308.60000610352 77 1 delete
11:52:42 57.730095 28.347183 4.6999998092651 44.5 0 250.0299987793 77 1 delete
11:52:34 57.730087 28.347448 4.5 49.5 0 158.83000183105 77 1 delete
11:52:28 57.730178 28.347345 4.4000000953674 51.2 0 173.16000366211 77 1 delete
11:51:40 57.730280 28.347310 2.5999999046326 56.1 0 124.0299987793 77 1 delete
11:50:30 57.730293 28.347142 3.0999999046326 52.9 0.18375582993031 227.2200012207 77 1 delete
11:49:56 57.730427 28.347282 3 52.9 0 185.52000427246 77 1 delete
11:49:42 57.730475 28.347423 2.9000000953674 53.6 0.86576277017593 232.5 77 1 delete
11:49:32 57.730538 28.347558 2.7999999523163 54.5 1.1627575159073 231.77000427246 77 1 delete
11:49:16 57.730623 28.347688 2.9000000953674 54.8 0.64597636461258 151.19000244141 77 1 delete
11:47:42 57.730685 28.347548 3.2000000476837 52.9 0 11.739999771118 77 1 delete
11:46:04 57.730775 28.347557 2.9000000953674 51.6 0.62590223550797 215.94000244141 77 1 delete
11:43:44 57.730763 28.347817 2.7999999523163 51.5 1.1431980133057 307.04998779297 77 1 delete
11:43:18 57.730790 28.347858 3.0999999046326 53.2 0 82.230003356934 77 1 delete
11:42:14 57.730838 28.347703 3.4000000953674 51.9 0 5.3499999046326 77 1 delete
11:41:00 57.730752 28.347892 3 53.5 0 126.98999786377 77 1 delete
11:39:20 57.730868 28.347637 2.9000000953674 51.3 0 340.85998535156 79 1 delete
11:31:26 57.730730 28.347668 3.2000000476837 47.5 0 274.25 79 1 delete
11:30:02 57.730700 28.347888 3.5 48.6 0 228.85000610352 79 1 delete
11:29:36 57.730715 28.348067 3.4000000953674 50.4 0 120.48000335693 79 1 delete
11:28:56 57.730723 28.347878 3.2999999523163 52 0 214.10000610352 79 1 delete
11:26:58 57.730810 28.347963 3.5 51.9 0 20.709999084473 79 1 delete
11:26:34 57.730735 28.347812 3.7000000476837 52.8 0 348.07998657227 79 1 delete
11:26:20 57.730657 28.347683 3.2999999523163 52.6 0 109.79000091553 79 1 delete
11:25:30 57.730648 28.347508 3.4000000953674 54.1 0.47097083926201 208.67999267578 79 1 delete
11:25:20 57.730732 28.347597 3.5999999046326 53.4 0 221.11999511719 79 1 delete
11:25:06 57.730822 28.347650 3 54.9 0.73450863361359 148.27000427246 79 1 delete
11:24:44 57.730953 28.347747 3.2999999523163 54.5 0 222.66999816895 79 1 delete
11:24:40 57.731057 28.347822 3.4000000953674 53.5 2.1113905906677 179.46000671387 79 1 delete